createdAt,value
2022-08-03T00:04:21.202Z,2.80
2022-08-03T00:09:35.993Z,2.65
2022-08-03T00:14:37.637Z,2.30
2022-08-03T00:19:39.281Z,2.70
2022-08-03T00:24:40.831Z,2.22
2022-08-03T00:29:59.670Z,2.50
2022-08-03T00:35:07.869Z,3.42
2022-08-03T00:40:12.555Z,2.47
2022-08-03T00:45:14.432Z,2.70
2022-08-03T00:50:17.298Z,2.80
2022-08-03T00:55:19.141Z,2.72
2022-08-03T01:00:23.667Z,3.30
2022-08-03T01:12:00.048Z,2.92
2022-08-03T01:17:16.472Z,3.10
2022-08-03T01:22:50.015Z,3.67
2022-08-03T01:28:39.051Z,3.13
2022-08-03T01:33:49.903Z,3.20
2022-08-03T01:38:56.279Z,3.20
2022-08-03T01:44:29.986Z,3.70
2022-08-03T01:49:21.350Z,3.80
2022-08-03T01:54:25.723Z,3.58
2022-08-03T01:59:29.174Z,3.38
2022-08-03T02:04:30.936Z,3.40
2022-08-03T02:09:35.030Z,3.33
2022-08-03T02:14:39.333Z,3.42
2022-08-03T02:19:42.774Z,4.10
2022-08-03T02:24:44.470Z,3.50
2022-08-03T02:30:02.696Z,3.70
2022-08-03T02:35:10.951Z,3.97
2022-08-03T02:40:14.920Z,4.20
2022-08-03T02:45:18.309Z,3.90
2022-08-03T02:50:21.946Z,4.07
2022-08-03T02:55:26.051Z,3.92
2022-08-03T03:00:28.738Z,4.05
2022-08-03T03:05:55.856Z,4.25
2022-08-03T03:11:00.548Z,4.55
2022-08-03T03:16:05.918Z,4.18
2022-08-03T03:21:09.889Z,3.50
2022-08-03T03:26:14.318Z,3.00
2022-08-03T03:31:16.141Z,2.97
2022-08-03T03:36:18.503Z,3.03
2022-08-03T03:41:20.310Z,3.03
2022-08-03T03:46:22.567Z,3.53
2022-08-03T03:51:24.127Z,3.05
2022-08-03T03:56:26.454Z,4.13
2022-08-03T04:01:28.693Z,3.60
2022-08-03T04:06:48.570Z,3.72
2022-08-03T04:11:54.964Z,3.35
2022-08-03T04:17:03.516Z,3.80
2022-08-03T04:22:14.249Z,3.45
2022-08-03T04:27:23.559Z,3.58
2022-08-03T04:32:28.776Z,3.43
2022-08-03T04:37:43.207Z,3.60
2022-08-03T04:42:46.094Z,4.53
2022-08-03T04:47:48.679Z,3.55
2022-08-03T04:52:50.267Z,3.30
2022-08-03T04:57:51.795Z,3.58
2022-08-03T05:02:54.303Z,3.90
2022-08-03T05:07:56.344Z,4.45
2022-08-03T05:12:57.878Z,3.70
2022-08-03T05:17:59.609Z,3.33
2022-08-03T05:23:01.953Z,3.08
2022-08-03T05:28:03.810Z,3.00
2022-08-03T05:33:05.458Z,2.95
2022-08-03T05:38:07.087Z,2.67
2022-08-03T05:43:10.964Z,3.38
2022-08-03T05:48:12.652Z,2.92
2022-08-03T05:53:14.257Z,3.10
2022-08-03T05:58:17.175Z,2.45
2022-08-03T06:03:20.022Z,2.85
2022-08-03T06:08:23.598Z,2.50
2022-08-03T06:13:25.175Z,2.88
2022-08-03T06:18:26.752Z,2.53
2022-08-03T06:23:54.830Z,2.50
2022-08-03T06:28:52.235Z,2.75
2022-08-03T06:34:34.754Z,2.47
2022-08-03T06:39:18.435Z,2.38
2022-08-03T06:44:20.192Z,2.22
2022-08-03T06:49:21.897Z,2.65
2022-08-03T06:54:24.435Z,2.80
2022-08-03T07:00:07.394Z,2.53
2022-08-03T07:04:50.512Z,2.30
2022-08-03T07:09:56.893Z,2.47
2022-08-03T07:15:02.651Z,2.13
2022-08-03T07:20:07.463Z,2.05
2022-08-03T07:25:09.450Z,2.38
2022-08-03T07:30:12.001Z,1.98
2022-08-03T07:35:22.753Z,2.53
2022-08-03T07:40:30.754Z,2.50
2022-08-03T07:45:34.086Z,2.20
2022-08-03T07:50:35.723Z,2.17
2022-08-03T07:55:37.346Z,2.40
2022-08-03T08:00:39.339Z,2.50
2022-08-03T08:05:40.927Z,2.08
2022-08-03T08:10:42.533Z,2.50
2022-08-03T08:16:00.939Z,1.90
2022-08-03T08:21:03.408Z,2.13
2022-08-03T08:26:05.021Z,2.70
2022-08-03T08:31:06.702Z,1.80
2022-08-03T08:36:10.951Z,2.35
2022-08-03T08:41:17.327Z,2.38
2022-08-03T08:46:23.799Z,2.90
2022-08-03T08:51:50.556Z,1.80
2022-08-03T08:56:56.039Z,1.90
2022-08-03T09:01:58.618Z,1.95
2022-08-03T09:07:19.205Z,1.80
2022-08-03T09:12:40.864Z,2.38
2022-08-03T09:17:46.396Z,2.22
2022-08-03T09:23:44.619Z,2.13
2022-08-03T09:29:00.005Z,2.20
2022-08-03T09:34:01.247Z,1.80
2022-08-03T09:39:10.936Z,2.22
2022-08-03T09:44:24.119Z,2.35
2022-08-03T09:49:26.477Z,2.30
2022-08-03T09:54:32.604Z,2.00
2022-08-03T09:59:34.689Z,2.28
2022-08-03T10:04:47.166Z,2.20
2022-08-03T10:10:29.587Z,2.40
2022-08-03T10:16:23.291Z,2.47
2022-08-03T10:20:56.489Z,2.78
2022-08-03T10:26:01.747Z,2.25
2022-08-03T10:31:07.638Z,2.45
2022-08-03T10:36:10.111Z,2.50
2022-08-03T10:41:12.818Z,2.22
2022-08-03T10:46:17.346Z,2.42
2022-08-03T10:51:19.719Z,2.20
2022-08-03T10:56:51.748Z,2.15
2022-08-03T11:01:58.525Z,2.22
2022-08-03T11:07:19.889Z,2.50
2022-08-03T11:12:33.290Z,2.05
2022-08-03T11:17:46.238Z,2.13
2022-08-03T11:22:59.559Z,2.35
2022-08-03T11:28:28.242Z,1.80
2022-08-03T11:38:32.137Z,1.70
2022-08-03T11:43:37.657Z,1.90
2022-08-03T11:48:43.067Z,1.83
2022-08-03T11:53:47.700Z,2.10
2022-08-03T11:59:17.066Z,2.15
2022-08-03T12:04:16.280Z,1.60
2022-08-03T12:09:17.966Z,1.45
2022-08-03T12:14:49.909Z,1.52
2022-08-03T12:19:44.687Z,1.60
2022-08-03T12:24:47.899Z,1.80
2022-08-03T12:29:57.078Z,1.70
2022-08-03T12:35:01.894Z,1.83
2022-08-03T12:40:10.627Z,1.48
2022-08-03T12:50:33.157Z,1.67
2022-08-03T12:55:57.708Z,1.73
2022-08-03T13:00:57.689Z,1.45
2022-08-03T13:05:59.283Z,1.60
2022-08-03T13:11:21.213Z,1.77
2022-08-03T13:16:23.233Z,1.63
2022-08-03T13:21:24.815Z,1.95
2022-08-03T13:26:26.369Z,1.60
2022-08-03T13:31:27.968Z,1.35
2022-08-03T13:36:52.871Z,1.80
2022-08-03T13:41:54.195Z,1.92
2022-08-03T13:46:55.842Z,1.50
2022-08-03T13:51:57.750Z,1.73
2022-08-03T13:58:11.591Z,1.77
2022-08-03T14:02:21.702Z,1.65
2022-08-03T14:07:23.340Z,1.80
2022-08-03T14:12:24.952Z,1.85
2022-08-03T14:17:26.490Z,1.70
2022-08-03T14:22:43.982Z,1.88
2022-08-03T14:27:45.598Z,1.50
2022-08-03T14:32:47.135Z,2.00
2022-08-03T14:37:48.721Z,2.03
2022-08-03T14:42:50.351Z,1.73
2022-08-03T14:50:30.253Z,1.80
2022-08-03T14:53:13.712Z,2.33
2022-08-03T14:58:19.647Z,1.60
2022-08-03T15:03:24.725Z,1.65
2022-08-03T15:08:26.635Z,1.90
2022-08-03T15:13:28.611Z,1.73
2022-08-03T15:18:30.362Z,1.85
2022-08-03T15:23:32.005Z,1.70
2022-08-03T15:28:33.567Z,1.98
2022-08-03T15:33:35.417Z,1.73
2022-08-03T15:38:37.059Z,1.98
2022-08-03T15:43:38.757Z,1.90
2022-08-03T15:48:41.279Z,1.75
2022-08-03T15:53:43.067Z,1.50
2022-08-03T15:59:04.173Z,1.60
2022-08-03T16:04:06.236Z,1.95
2022-08-03T16:09:24.069Z,2.05
2022-08-03T16:14:34.805Z,1.70
2022-08-03T16:19:42.056Z,1.92
2022-08-03T16:24:44.451Z,1.60
2022-08-03T16:29:46.068Z,1.90
2022-08-03T16:34:48.222Z,1.70
2022-08-03T16:39:49.894Z,2.05
2022-08-03T16:44:51.538Z,2.17
2022-08-03T16:49:56.274Z,1.85
2022-08-03T16:54:58.263Z,2.00
2022-08-03T17:00:00.212Z,2.15
2022-08-03T17:05:01.737Z,1.63
2022-08-03T17:10:04.498Z,1.75
2022-08-03T17:15:10.635Z,2.08
2022-08-03T17:20:15.031Z,1.90
2022-08-03T17:26:04.095Z,2.22
2022-08-03T17:30:58.431Z,1.98
2022-08-03T17:36:01.294Z,2.05
2022-08-03T17:41:10.558Z,1.77
2022-08-03T17:46:13.895Z,2.20
2022-08-03T17:51:46.238Z,2.03
2022-08-03T17:56:58.225Z,2.00
2022-08-03T18:02:30.666Z,2.00
2022-08-03T18:07:41.162Z,1.70
2022-08-03T18:13:11.050Z,1.80
2022-08-03T18:18:15.930Z,2.08
2022-08-03T18:23:24.940Z,1.80
2022-08-03T18:28:39.221Z,1.75
2022-08-03T18:34:20.337Z,1.67
2022-08-03T18:39:04.806Z,1.88
2022-08-03T18:44:09.637Z,1.67
2022-08-03T18:49:41.320Z,1.85
2022-08-03T18:55:09.345Z,2.10
2022-08-03T19:00:42.700Z,1.92
2022-08-03T19:06:02.803Z,2.17
2022-08-03T19:11:15.531Z,2.10
2022-08-03T19:16:39.405Z,2.10
2022-08-03T19:21:41.314Z,2.22
2022-08-03T19:26:42.881Z,1.90
2022-08-03T19:31:57.969Z,1.90
2022-08-03T19:37:02.529Z,2.22
2022-08-03T19:47:51.380Z,2.10
2022-08-03T19:52:54.089Z,1.80
2022-08-03T19:57:57.965Z,1.50
2022-08-03T20:03:02.609Z,2.35
2022-08-03T20:08:06.640Z,2.17
2022-08-03T20:13:13.146Z,2.40
2022-08-03T20:23:26.429Z,2.20
2022-08-03T20:28:50.214Z,2.00
2022-08-03T20:33:52.274Z,2.00
2022-08-03T20:38:57.649Z,1.83
2022-08-03T20:44:00.976Z,2.10
2022-08-03T20:49:04.638Z,1.80
2022-08-03T20:54:09.861Z,1.80
2022-08-03T20:59:35.025Z,1.70
2022-08-03T21:04:49.090Z,1.77
2022-08-03T21:09:52.834Z,1.50
2022-08-03T21:13:02.803Z,2.03
2022-08-03T21:15:03.888Z,1.90
2022-08-03T21:20:07.906Z,1.63
2022-08-03T21:25:11.280Z,1.70
2022-08-03T21:30:13.123Z,1.63
2022-08-03T21:35:15.794Z,1.73
2022-08-03T21:40:17.508Z,1.92
2022-08-03T21:45:19.112Z,1.60
2022-08-03T21:50:21.060Z,1.80
2022-08-03T21:55:26.368Z,1.70
2022-08-03T22:00:28.150Z,2.10
2022-08-03T22:05:43.579Z,1.75
2022-08-03T22:10:47.403Z,1.80
2022-08-03T22:15:49.168Z,1.83
2022-08-03T22:20:52.264Z,2.20
2022-08-03T22:25:56.491Z,1.70
2022-08-03T22:31:00.102Z,1.85
2022-08-03T22:36:24.038Z,1.73
2022-08-03T22:41:29.477Z,1.70
2022-08-03T22:46:33.864Z,1.80
2022-08-03T22:51:36.151Z,2.10
2022-08-03T22:56:41.328Z,2.28
2022-08-03T23:01:44.437Z,2.30
2022-08-03T23:06:50.615Z,1.90
2022-08-03T23:11:55.269Z,2.00
2022-08-03T23:17:02.775Z,2.33
2022-08-03T23:22:05.844Z,2.10
2022-08-03T23:27:08.542Z,2.63
2022-08-03T23:32:10.483Z,2.30
2022-08-03T23:37:15.084Z,2.70
2022-08-03T23:42:18.690Z,2.60
2022-08-03T23:47:20.468Z,2.30
2022-08-03T23:52:46.160Z,2.80
2022-08-03T23:58:04.007Z,2.72
